createdAt,value
2022-08-09T00:00:48.109Z,58.55
2022-08-09T00:01:55.310Z,58.65
2022-08-09T00:02:50.067Z,58.75
2022-08-09T00:04:05.838Z,58.86
2022-08-09T00:05:03.683Z,58.95
2022-08-09T00:06:19.833Z,59.06
2022-08-09T00:06:48.022Z,59.06
2022-08-09T00:07:47.073Z,59.06
2022-08-09T00:08:46.992Z,59.06
2022-08-09T00:09:47.246Z,58.95
2022-08-09T00:10:47.054Z,59.06
2022-08-09T00:11:58.592Z,59.06
2022-08-09T00:12:51.690Z,59.16
2022-08-09T00:13:47.063Z,59.28
2022-08-09T00:14:47.459Z,59.28
2022-08-09T00:15:59.734Z,59.48
2022-08-09T00:16:47.949Z,59.48
2022-08-09T00:18:09.502Z,59.48
2022-08-09T00:18:48.071Z,59.39
2022-08-09T00:19:47.995Z,59.39
2022-08-09T00:20:50.208Z,59.39
2022-08-09T00:21:55.714Z,59.48
2022-08-09T00:22:48.014Z,59.69
2022-08-09T00:23:56.288Z,59.79
2022-08-09T00:24:47.834Z,60.19
2022-08-09T00:25:46.979Z,60.39
2022-08-09T00:26:47.805Z,60.42
2022-08-09T00:27:47.961Z,60.72
2022-08-09T00:28:52.737Z,61.03
2022-08-09T00:30:23.673Z,61.03
2022-08-09T00:30:47.758Z,61.23
2022-08-09T00:31:59.243Z,61.23
2022-08-09T00:32:47.766Z,61.36
2022-08-09T00:33:50.425Z,61.56
2022-08-09T00:34:52.060Z,61.46
2022-08-09T00:35:47.868Z,61.56
2022-08-09T00:36:46.694Z,61.66
2022-08-09T00:37:46.984Z,61.66
2022-08-09T00:38:50.774Z,61.76
2022-08-09T00:40:13.729Z,61.76
2022-08-09T00:40:52.570Z,61.66
2022-08-09T00:44:11.190Z,61.96
2022-08-09T00:44:13.073Z,61.76
2022-08-09T00:44:13.486Z,61.86
2022-08-09T00:44:47.609Z,62.06
2022-08-09T00:45:50.519Z,62.16
2022-08-09T00:46:57.053Z,62.16
2022-08-09T00:47:47.656Z,62.37
2022-08-09T00:48:49.388Z,62.46
2022-08-09T00:49:54.482Z,62.46
2022-08-09T00:50:47.614Z,62.46
2022-08-09T00:51:46.566Z,62.57
2022-08-09T00:52:47.545Z,62.66
2022-08-09T00:53:46.516Z,62.77
2022-08-09T00:54:46.496Z,62.87
2022-08-09T00:56:04.084Z,63.07
2022-08-09T00:56:47.468Z,63.17
2022-08-09T00:57:49.659Z,63.37
2022-08-09T00:58:48.900Z,63.50
2022-08-09T00:59:52.544Z,63.70
2022-08-09T01:00:47.501Z,63.81
2022-08-09T01:01:46.487Z,63.81
2022-08-09T01:02:46.417Z,64.01
2022-08-09T01:03:46.738Z,63.90
2022-08-09T01:04:46.388Z,64.01
2022-08-09T01:05:51.866Z,64.01
2022-08-09T01:06:54.312Z,64.01
2022-08-09T01:08:00.420Z,64.01
2022-08-09T01:08:49.483Z,64.01
2022-08-09T01:09:46.897Z,64.01
2022-08-09T01:10:46.319Z,64.21
2022-08-09T01:11:55.484Z,64.11
2022-08-09T01:12:47.300Z,63.90
2022-08-09T01:13:58.529Z,63.81
2022-08-09T01:14:48.063Z,63.81
2022-08-09T01:15:52.288Z,63.90
2022-08-09T01:16:49.421Z,64.01
2022-08-09T01:17:46.240Z,64.11
2022-08-09T01:18:47.420Z,64.11
2022-08-09T01:20:01.493Z,64.41
2022-08-09T01:20:47.291Z,64.61
2022-08-09T01:21:51.077Z,64.51
2022-08-09T01:22:48.231Z,64.72
2022-08-09T01:24:02.295Z,64.84
2022-08-09T01:24:50.314Z,64.84
2022-08-09T01:25:48.958Z,64.95
2022-08-09T01:26:46.410Z,65.05
2022-08-09T01:27:47.131Z,65.05
2022-08-09T01:28:46.121Z,65.05
2022-08-09T01:29:55.303Z,64.95
2022-08-09T01:30:52.246Z,64.95
2022-08-09T01:32:31.947Z,64.95
2022-08-09T01:32:47.145Z,64.95
2022-08-09T01:33:46.060Z,64.95
2022-08-09T01:34:46.049Z,64.84
2022-08-09T01:35:46.032Z,64.84
2022-08-09T01:36:47.042Z,64.95
2022-08-09T01:38:08.050Z,64.95
2022-08-09T01:38:46.998Z,64.95
2022-08-09T01:39:46.057Z,65.05
2022-08-09T01:40:52.760Z,64.95
2022-08-09T01:41:55.700Z,65.05
2022-08-09T01:42:46.982Z,65.05
2022-08-09T01:43:52.046Z,64.95
2022-08-09T01:44:46.935Z,65.05
2022-08-09T01:45:47.710Z,64.95
2022-08-09T01:46:47.064Z,65.05
2022-08-09T01:47:45.901Z,65.05
2022-08-09T01:48:45.911Z,65.15
2022-08-09T01:49:48.739Z,65.25
2022-08-09T01:50:48.400Z,65.45
2022-08-09T01:51:53.595Z,65.55
2022-08-09T01:52:46.855Z,65.65
2022-08-09T01:53:45.854Z,65.75
2022-08-09T01:54:45.821Z,65.85
2022-08-09T01:55:45.804Z,66.08
2022-08-09T01:56:47.085Z,66.29
2022-08-09T01:57:50.715Z,66.39
2022-08-09T01:58:48.934Z,66.49
2022-08-09T01:59:51.778Z,66.49
2022-08-09T02:00:50.669Z,66.49
2022-08-09T02:01:59.278Z,66.69
2022-08-09T02:02:46.732Z,66.79
2022-08-09T02:03:45.731Z,66.79
2022-08-09T02:04:45.886Z,66.79
2022-08-09T02:06:03.390Z,66.79
2022-08-09T02:06:58.504Z,66.69
2022-08-09T02:08:40.185Z,66.69
2022-08-09T02:08:58.089Z,66.69
2022-08-09T02:09:46.675Z,66.69
2022-08-09T02:10:50.879Z,67.10
2022-08-09T02:11:46.624Z,66.89
2022-08-09T02:12:45.623Z,67.10
2022-08-09T02:14:06.464Z,67.19
2022-08-09T02:14:46.594Z,67.30
2022-08-09T02:15:50.298Z,67.40
2022-08-09T02:16:53.157Z,67.50
2022-08-09T02:18:09.845Z,67.63
2022-08-09T02:18:47.827Z,67.73
2022-08-09T02:19:45.760Z,67.73
2022-08-09T02:20:45.545Z,68.04
2022-08-09T02:21:45.517Z,68.04
2022-08-09T02:22:46.399Z,68.04
2022-08-09T02:23:45.488Z,68.24
2022-08-09T02:24:51.628Z,68.13
2022-08-09T02:25:49.631Z,68.13
2022-08-09T02:26:46.459Z,68.13
2022-08-09T02:28:00.424Z,68.13
2022-08-09T02:28:46.436Z,68.24
2022-08-09T02:29:45.433Z,68.24
2022-08-09T02:30:46.436Z,68.33
2022-08-09T02:31:45.417Z,68.33
2022-08-09T02:32:45.396Z,68.44
2022-08-09T02:34:07.191Z,68.64
2022-08-09T02:34:51.616Z,68.74
2022-08-09T02:36:03.369Z,68.84
2022-08-09T02:36:46.368Z,68.95
2022-08-09T02:37:45.543Z,69.08
2022-08-09T02:38:47.903Z,69.18
2022-08-09T02:39:49.656Z,69.28
2022-08-09T02:40:46.365Z,69.38
2022-08-09T02:41:45.308Z,69.48
2022-08-09T02:42:45.277Z,69.48
2022-08-09T02:43:53.678Z,69.38
2022-08-09T02:44:46.267Z,69.48
2022-08-09T02:45:45.240Z,69.58
2022-08-09T02:46:45.236Z,69.68
2022-08-09T02:47:57.326Z,69.68
2022-08-09T02:48:46.334Z,69.68
2022-08-09T02:49:45.201Z,69.58
2022-08-09T02:50:45.198Z,69.68
2022-08-09T02:51:45.167Z,69.78
2022-08-09T02:52:45.170Z,69.98
2022-08-09T02:53:59.630Z,69.89
2022-08-09T02:54:54.071Z,69.89
2022-08-09T02:55:58.557Z,70.09
2022-08-09T02:56:51.376Z,70.09
2022-08-09T02:58:00.082Z,70.19
2022-08-09T02:58:46.119Z,70.29
2022-08-09T03:00:11.388Z,70.53
2022-08-09T03:00:54.912Z,70.59
2022-08-09T03:02:05.338Z,70.62
2022-08-09T03:02:58.656Z,70.62
2022-08-09T03:04:17.714Z,70.73
2022-08-09T03:04:46.051Z,70.83
2022-08-09T03:05:45.010Z,70.93
2022-08-09T03:06:45.472Z,71.03
2022-08-09T03:07:55.210Z,71.13
2022-08-09T03:08:45.987Z,71.23
2022-08-09T03:09:54.319Z,71.44
2022-08-09T03:10:45.963Z,71.44
2022-08-09T03:12:10.428Z,71.53
2022-08-09T03:12:49.461Z,71.64
2022-08-09T03:13:59.705Z,71.84
2022-08-09T03:14:45.950Z,72.08
2022-08-09T03:16:06.393Z,72.17
2022-08-09T03:16:48.154Z,72.17
2022-08-09T03:17:44.878Z,72.17
2022-08-09T03:18:44.870Z,72.14
2022-08-09T03:19:58.276Z,72.14
2022-08-09T03:20:45.870Z,72.04
2022-08-09T03:21:50.774Z,72.14
2022-08-09T03:22:45.873Z,72.38
2022-08-09T03:24:04.062Z,72.58
2022-08-09T03:24:52.111Z,72.78
2022-08-09T03:25:56.937Z,72.78
2022-08-09T03:26:47.171Z,72.78
2022-08-09T03:27:45.804Z,72.88
2022-08-09T03:28:44.766Z,72.88
2022-08-09T03:29:58.104Z,72.99
2022-08-09T03:30:45.731Z,72.88
2022-08-09T03:32:00.550Z,72.99
2022-08-09T03:32:45.786Z,72.99
2022-08-09T03:33:53.123Z,73.28
2022-08-09T03:34:45.692Z,73.39
2022-08-09T03:36:12.904Z,73.59
2022-08-09T03:36:48.048Z,73.99
2022-08-09T03:37:55.605Z,73.90
2022-08-09T03:38:45.669Z,73.93
2022-08-09T03:39:48.693Z,74.03
2022-08-09T03:40:45.621Z,74.13
2022-08-09T03:41:48.410Z,74.03
2022-08-09T03:42:44.621Z,73.99
2022-08-09T03:44:03.402Z,74.13
2022-08-09T03:44:45.592Z,74.33
2022-08-09T03:46:05.222Z,74.54
2022-08-09T03:46:46.462Z,74.63
2022-08-09T03:47:46.816Z,74.74
2022-08-09T03:48:51.703Z,74.84
2022-08-09T03:49:58.036Z,74.84
2022-08-09T03:50:45.503Z,74.84
2022-08-09T03:51:59.110Z,74.84
2022-08-09T03:52:46.030Z,74.94
2022-08-09T03:53:44.467Z,74.94
2022-08-09T03:54:44.461Z,75.04
2022-08-09T03:55:44.496Z,75.04
2022-08-09T03:56:44.442Z,75.14
2022-08-09T03:57:44.657Z,75.14
2022-08-09T03:58:45.424Z,75.14
2022-08-09T03:59:54.211Z,75.24
2022-08-09T04:00:45.485Z,75.24
2022-08-09T04:01:44.375Z,75.34
2022-08-09T04:02:52.656Z,75.34
2022-08-09T04:03:46.467Z,75.55
2022-08-09T04:04:45.634Z,75.55
2022-08-09T04:05:45.966Z,75.65
2022-08-09T04:06:48.863Z,75.65
2022-08-09T04:07:53.615Z,75.55
2022-08-09T04:08:46.728Z,75.65
2022-08-09T04:09:50.285Z,75.65
2022-08-09T04:10:49.675Z,75.65
2022-08-09T04:11:44.286Z,75.75
2022-08-09T04:12:44.975Z,75.75
2022-08-09T04:14:37.563Z,75.85
2022-08-09T04:15:00.539Z,75.95
2022-08-09T04:16:18.580Z,75.75
2022-08-09T04:16:45.229Z,75.75
2022-08-09T04:17:44.197Z,75.65
2022-08-09T04:18:44.178Z,75.65
2022-08-09T04:19:51.456Z,75.55
2022-08-09T04:20:45.167Z,75.45
2022-08-09T04:21:44.148Z,75.45
2022-08-09T04:22:44.506Z,75.55
2022-08-09T04:23:54.157Z,75.45
2022-08-09T04:24:45.119Z,75.55
2022-08-09T04:25:44.109Z,75.65
2022-08-09T04:26:44.099Z,75.85
2022-08-09T04:27:48.972Z,75.85
2022-08-09T04:28:46.916Z,75.95
2022-08-09T04:29:49.690Z,75.95
2022-08-09T04:30:45.086Z,76.05
2022-08-09T04:31:46.747Z,75.95
2022-08-09T04:32:45.840Z,75.75
2022-08-09T04:33:51.638Z,75.75
2022-08-09T04:34:54.185Z,75.65
2022-08-09T04:35:44.989Z,75.55
2022-08-09T04:36:50.342Z,75.45
2022-08-09T04:37:46.458Z,75.55
2022-08-09T04:38:43.960Z,75.65
2022-08-09T04:39:44.030Z,75.65
2022-08-09T04:40:44.939Z,75.75
2022-08-09T04:41:44.104Z,75.75
2022-08-09T04:42:43.910Z,75.85
2022-08-09T04:43:49.883Z,75.85
2022-08-09T04:44:49.279Z,75.95
2022-08-09T04:45:53.501Z,75.85
2022-08-09T04:46:59.120Z,75.95
2022-08-09T04:47:59.239Z,76.05
2022-08-09T04:48:50.314Z,76.05
2022-08-09T04:49:54.816Z,76.05
2022-08-09T04:50:44.841Z,76.05
2022-08-09T04:51:43.809Z,76.05
2022-08-09T04:52:43.801Z,76.05
2022-08-09T04:53:43.781Z,76.05
2022-08-09T04:54:43.771Z,75.95
2022-08-09T04:55:59.069Z,75.92
2022-08-09T04:56:44.771Z,75.92
2022-08-09T04:57:58.785Z,75.92
2022-08-09T04:58:44.735Z,75.81
2022-08-09T04:59:43.711Z,75.92
2022-08-09T05:00:43.714Z,75.92
2022-08-09T05:01:43.713Z,75.92
2022-08-09T05:02:43.682Z,75.92
2022-08-09T05:03:44.727Z,75.92
2022-08-09T05:04:43.661Z,75.81
2022-08-09T05:05:51.821Z,75.71
2022-08-09T05:06:44.665Z,75.71
2022-08-09T05:07:46.537Z,75.61
2022-08-09T05:08:43.815Z,75.61
2022-08-09T05:09:49.927Z,75.61
2022-08-09T05:10:44.640Z,75.61
2022-08-09T05:11:43.605Z,75.48
2022-08-09T05:12:43.583Z,75.48
2022-08-09T05:13:43.603Z,75.37
2022-08-09T05:14:43.552Z,75.27
2022-08-09T05:15:48.046Z,75.17
2022-08-09T05:16:59.020Z,75.27
2022-08-09T05:18:42.430Z,75.17
2022-08-09T05:18:57.946Z,75.17
2022-08-09T05:19:46.188Z,74.97
2022-08-09T05:20:43.482Z,74.97
2022-08-09T05:21:47.414Z,74.84
2022-08-09T05:23:51.121Z,74.73
2022-08-09T05:23:55.003Z,74.73
2022-08-09T05:24:44.465Z,74.73
2022-08-09T05:25:43.434Z,74.63
2022-08-09T05:26:46.108Z,74.63
2022-08-09T05:27:46.467Z,74.63
2022-08-09T05:28:43.393Z,74.53
2022-08-09T05:29:43.374Z,74.49
2022-08-09T05:30:47.925Z,74.49
2022-08-09T05:31:46.838Z,74.29
2022-08-09T05:32:44.346Z,74.19
2022-08-09T05:33:43.340Z,73.99
2022-08-09T05:34:45.669Z,73.79
2022-08-09T05:35:46.779Z,73.75
2022-08-09T05:36:47.060Z,73.65
2022-08-09T05:37:47.997Z,73.45
2022-08-09T05:38:46.016Z,72.95
2022-08-09T05:39:44.507Z,72.71
2022-08-09T05:40:46.501Z,72.41
2022-08-09T05:41:44.244Z,72.20
2022-08-09T05:42:43.688Z,72.00
2022-08-09T05:43:45.250Z,71.80
2022-08-09T05:44:44.212Z,71.87
2022-08-09T05:45:52.506Z,71.26
2022-08-09T05:46:44.183Z,71.06
2022-08-09T05:47:51.635Z,71.26
2022-08-09T05:48:44.208Z,70.97
2022-08-09T05:50:25.211Z,70.62
2022-08-09T05:50:51.085Z,70.42
2022-08-09T05:51:46.470Z,70.42
2022-08-09T05:52:43.118Z,69.82
2022-08-09T05:53:56.785Z,69.92
2022-08-09T05:54:44.110Z,69.82
2022-08-09T05:55:43.086Z,69.69
2022-08-09T05:56:54.426Z,69.18
2022-08-09T05:57:50.777Z,68.95
2022-08-09T05:58:44.046Z,68.85
2022-08-09T05:59:43.059Z,68.11
2022-08-09T06:00:43.027Z,67.91
2022-08-09T06:01:43.017Z,67.31
2022-08-09T06:02:46.424Z,66.87
2022-08-09T06:03:44.071Z,66.47
2022-08-09T06:04:44.705Z,66.27
2022-08-09T06:05:57.299Z,65.84
2022-08-09T06:06:49.747Z,65.41
2022-08-09T06:07:43.958Z,64.77
2022-08-09T06:08:43.940Z,64.17
2022-08-09T06:10:02.284Z,63.43
2022-08-09T06:10:43.969Z,63.00
2022-08-09T06:11:57.152Z,62.27
2022-08-09T06:12:43.898Z,60.81
2022-08-09T06:13:42.879Z,59.02
2022-08-09T06:14:42.871Z,56.84
2022-08-09T06:15:42.869Z,55.39
2022-08-09T06:16:42.871Z,53.91
2022-08-09T06:17:43.839Z,52.37
2022-08-09T06:18:42.829Z,51.45
2022-08-09T06:19:42.818Z,51.27
2022-08-09T06:20:42.804Z,50.82
2022-08-09T06:21:51.410Z,49.91
2022-08-09T06:22:45.647Z,49.80
2022-08-09T06:23:54.976Z,49.16
2022-08-09T06:24:43.761Z,48.44
2022-08-09T06:25:43.248Z,47.63
2022-08-09T06:26:43.661Z,47.11
2022-08-09T06:27:51.680Z,46.39
2022-08-09T06:28:43.716Z,46.57
2022-08-09T06:29:48.178Z,46.27
2022-08-09T06:30:43.691Z,45.45
2022-08-09T06:32:08.335Z,45.56
2022-08-09T06:32:59.388Z,45.34
2022-08-09T06:33:53.117Z,44.84
2022-08-09T06:34:43.655Z,44.60
2022-08-09T06:35:57.584Z,43.69
2022-08-09T06:36:44.051Z,43.17
2022-08-09T06:37:53.052Z,42.36
2022-08-09T06:38:49.944Z,42.68
2022-08-09T06:39:58.358Z,42.88
2022-08-09T06:40:43.639Z,42.88
2022-08-09T06:42:07.969Z,42.78
2022-08-09T06:42:44.783Z,43.02
2022-08-09T06:43:42.566Z,43.19
2022-08-09T06:44:42.545Z,42.88
2022-08-09T06:46:06.626Z,42.46
2022-08-09T06:46:43.516Z,41.95
2022-08-09T06:47:42.507Z,41.75
2022-08-09T06:48:42.698Z,41.33
2022-08-09T06:50:12.032Z,41.36
2022-08-09T06:50:43.468Z,42.90
2022-08-09T06:51:42.470Z,42.62
2022-08-09T06:52:42.452Z,42.90
2022-08-09T06:53:42.449Z,42.30
2022-08-09T06:54:42.457Z,42.29
2022-08-09T06:55:42.439Z,41.97
2022-08-09T06:56:45.566Z,42.40
2022-08-09T06:58:01.210Z,42.70
2022-08-09T07:00:51.426Z,42.29
2022-08-09T07:00:52.217Z,41.36
2022-08-09T07:00:52.509Z,41.06
2022-08-09T07:01:58.101Z,41.83
2022-08-09T07:02:43.459Z,43.60
2022-08-09T07:03:53.088Z,43.77
2022-08-09T07:04:43.321Z,44.09
2022-08-09T07:05:58.345Z,44.07
2022-08-09T07:06:43.307Z,43.26
2022-08-09T07:07:59.970Z,42.22
2022-08-09T07:08:43.281Z,41.71
2022-08-09T07:09:55.954Z,41.91
2022-08-09T07:10:43.277Z,41.28
2022-08-09T07:11:52.091Z,40.72
2022-08-09T07:12:43.420Z,39.11
2022-08-09T07:14:04.458Z,38.09
2022-08-09T07:14:43.213Z,37.89
2022-08-09T07:16:38.544Z,38.85
2022-08-09T07:16:49.039Z,40.58
2022-08-09T07:17:52.598Z,41.61
2022-08-09T07:18:43.177Z,41.63
2022-08-09T07:19:42.167Z,42.52
2022-08-09T07:20:43.817Z,41.28
2022-08-09T07:21:42.177Z,39.34
2022-08-09T07:22:49.577Z,38.32
2022-08-09T07:23:46.731Z,38.30
2022-08-09T07:24:44.370Z,37.89
2022-08-09T07:25:43.512Z,37.89
2022-08-09T07:26:42.088Z,37.38
2022-08-09T07:27:42.891Z,37.65
2022-08-09T07:29:08.802Z,37.24
2022-08-09T07:29:43.152Z,36.32
2022-08-09T07:30:42.039Z,36.13
2022-08-09T07:31:45.544Z,36.42
2022-08-09T07:32:43.066Z,36.03
2022-08-09T07:33:52.662Z,36.46
2022-08-09T07:34:43.009Z,37.71
2022-08-09T07:35:53.868Z,38.32
2022-08-09T07:36:42.981Z,38.64
2022-08-09T07:37:44.564Z,37.99
2022-08-09T07:38:41.982Z,36.57
2022-08-09T07:39:42.552Z,35.54
2022-08-09T07:41:08.283Z,34.95
2022-08-09T07:41:42.932Z,35.42
2022-08-09T07:42:41.923Z,35.11
2022-08-09T07:43:49.820Z,34.81
2022-08-09T07:44:52.453Z,35.42
2022-08-09T07:45:42.902Z,36.77
2022-08-09T07:46:41.883Z,37.40
2022-08-09T07:47:49.535Z,37.71
2022-08-09T07:48:42.874Z,38.02
2022-08-09T07:50:04.624Z,38.43
2022-08-09T07:50:42.845Z,38.34
2022-08-09T07:52:05.714Z,38.51
2022-08-09T07:52:42.979Z,38.93
2022-08-09T07:54:07.168Z,38.89
2022-08-09T07:54:42.845Z,37.89
2022-08-09T07:56:03.456Z,38.17
2022-08-09T07:56:48.682Z,38.32
2022-08-09T07:57:46.567Z,39.34
2022-08-09T07:58:41.755Z,39.31
2022-08-09T07:59:51.854Z,39.12
2022-08-09T08:00:59.091Z,38.38
2022-08-09T08:01:42.792Z,37.57
2022-08-09T08:02:42.995Z,36.95
2022-08-09T08:03:42.707Z,36.24
2022-08-09T08:04:41.698Z,35.44
2022-08-09T08:05:58.022Z,35.52
2022-08-09T08:06:55.871Z,35.33
2022-08-09T08:08:43.500Z,35.42
2022-08-09T08:09:03.814Z,34.92
2022-08-09T08:09:45.283Z,34.44
2022-08-09T08:10:48.757Z,35.34
2022-08-09T08:12:10.475Z,35.42
2022-08-09T08:12:45.051Z,35.57
2022-08-09T08:13:56.204Z,36.30
2022-08-09T08:14:42.593Z,36.08
2022-08-09T08:15:41.593Z,35.39
2022-08-09T08:17:01.053Z,36.59
2022-08-09T08:17:52.924Z,36.49
2022-08-09T08:18:43.234Z,35.72
2022-08-09T08:19:41.545Z,36.02
2022-08-09T08:20:42.899Z,35.21
2022-08-09T08:21:41.525Z,35.21
2022-08-09T08:22:42.508Z,35.61
2022-08-09T08:23:41.542Z,35.06
2022-08-09T08:24:47.246Z,34.36
2022-08-09T08:25:44.395Z,33.26
2022-08-09T08:26:55.135Z,33.67
2022-08-09T08:27:43.065Z,33.34
2022-08-09T08:28:41.455Z,33.15
2022-08-09T08:29:48.535Z,32.56
2022-08-09T08:30:42.427Z,32.86
2022-08-09T08:32:03.985Z,33.51
2022-08-09T08:32:53.678Z,31.91
2022-08-09T08:33:52.794Z,31.78
2022-08-09T08:34:42.437Z,31.99
2022-08-09T08:35:59.734Z,31.88
2022-08-09T08:36:42.370Z,32.06
2022-08-09T08:38:01.919Z,31.75
2022-08-09T08:38:42.359Z,31.04
2022-08-09T08:39:43.676Z,30.83
2022-08-09T08:40:41.355Z,30.93
2022-08-09T08:41:50.275Z,30.91
2022-08-09T08:42:43.613Z,29.74
2022-08-09T08:43:42.301Z,29.86
2022-08-09T08:44:41.292Z,30.77
2022-08-09T08:45:43.196Z,30.79
2022-08-09T08:47:02.314Z,31.59
2022-08-09T08:47:42.893Z,32.48
2022-08-09T08:48:51.402Z,31.78
2022-08-09T08:49:46.760Z,31.67
2022-08-09T08:50:42.238Z,31.08
2022-08-09T08:52:00.257Z,31.16
2022-08-09T08:52:57.683Z,30.47
2022-08-09T08:53:42.217Z,30.74
2022-08-09T08:54:42.194Z,29.96
2022-08-09T08:55:41.766Z,30.05
2022-08-09T08:56:41.301Z,30.06
2022-08-09T08:57:41.165Z,30.37
2022-08-09T08:58:44.492Z,29.69
2022-08-09T08:59:46.609Z,30.58
2022-08-09T09:00:42.126Z,30.94
2022-08-09T09:01:52.664Z,30.42
2022-08-09T09:02:42.195Z,29.43
2022-08-09T09:03:41.191Z,29.11
2022-08-09T09:04:47.846Z,28.72
2022-08-09T09:06:00.008Z,29.21
2022-08-09T09:06:42.077Z,28.63
2022-08-09T09:07:42.725Z,29.02
2022-08-09T09:08:42.374Z,28.70
2022-08-09T09:10:01.769Z,28.51
2022-08-09T09:10:42.037Z,27.84
2022-08-09T09:11:41.029Z,28.29
2022-08-09T09:12:41.020Z,29.18
2022-08-09T09:13:54.863Z,29.69
2022-08-09T09:14:42.020Z,29.70
2022-08-09T09:15:41.022Z,29.98
2022-08-09T09:16:40.981Z,29.30
2022-08-09T09:17:48.660Z,29.86
2022-08-09T09:18:48.176Z,29.75
2022-08-09T09:19:42.132Z,28.75
2022-08-09T09:20:40.970Z,27.84
2022-08-09T09:21:43.245Z,27.56
2022-08-09T09:22:41.922Z,28.11
2022-08-09T09:23:40.912Z,28.92
2022-08-09T09:24:43.258Z,29.69
2022-08-09T09:26:01.464Z,28.20
2022-08-09T09:26:41.913Z,28.22
2022-08-09T09:28:06.150Z,29.73
2022-08-09T09:29:03.313Z,29.24
2022-08-09T09:30:14.063Z,29.71
2022-08-09T09:30:41.983Z,28.64
2022-08-09T09:32:06.934Z,29.00
2022-08-09T09:32:41.844Z,27.61
2022-08-09T09:33:44.343Z,27.68
2022-08-09T09:34:40.805Z,27.78
2022-08-09T09:35:43.854Z,27.59
2022-08-09T09:36:52.725Z,27.33
2022-08-09T09:37:41.805Z,27.72
2022-08-09T09:38:40.766Z,27.54
2022-08-09T09:39:50.505Z,27.62
2022-08-09T09:40:41.746Z,28.00
2022-08-09T09:41:49.648Z,27.12
2022-08-09T09:42:45.995Z,27.31
2022-08-09T09:44:11.128Z,27.41
2022-08-09T09:44:41.708Z,27.70
2022-08-09T09:45:57.024Z,27.22
2022-08-09T09:46:50.463Z,27.31
2022-08-09T09:47:56.153Z,27.41
2022-08-09T09:48:41.691Z,27.62
2022-08-09T09:50:07.363Z,27.90
2022-08-09T09:50:42.095Z,27.50
2022-08-09T09:51:41.648Z,28.07
2022-08-09T09:52:40.640Z,27.28
2022-08-09T09:53:57.287Z,26.98
2022-08-09T09:54:41.631Z,26.68
2022-08-09T09:55:41.610Z,27.08
2022-08-09T09:58:01.332Z,27.11
2022-08-09T09:58:01.578Z,28.30
2022-08-09T09:58:41.582Z,28.63
2022-08-09T09:59:40.612Z,29.63
2022-08-09T10:00:40.554Z,29.95
2022-08-09T10:01:40.652Z,30.37
2022-08-09T10:02:47.577Z,31.29
2022-08-09T10:03:40.606Z,31.60
2022-08-09T10:04:40.571Z,32.23
2022-08-09T10:06:03.578Z,33.05
2022-08-09T10:06:42.382Z,33.48
2022-08-09T10:08:01.171Z,34.28
2022-08-09T10:08:42.455Z,34.59
2022-08-09T10:09:44.088Z,35.56
2022-08-09T10:10:41.469Z,34.69
2022-08-09T10:11:53.930Z,35.10
2022-08-09T10:12:43.508Z,35.38
2022-08-09T10:13:45.110Z,34.89
2022-08-09T10:14:43.981Z,35.69
2022-08-09T10:16:09.647Z,34.49
2022-08-09T10:16:57.882Z,34.18
2022-08-09T10:17:50.787Z,34.17
2022-08-09T10:18:41.370Z,34.44
2022-08-09T10:19:41.357Z,34.54
2022-08-09T10:20:45.263Z,33.84
2022-08-09T10:21:41.330Z,32.95
2022-08-09T10:22:40.723Z,33.56
2022-08-09T10:23:40.331Z,33.07
2022-08-09T10:24:40.348Z,33.26
2022-08-09T10:26:07.541Z,34.05
2022-08-09T10:26:41.279Z,33.44
2022-08-09T10:27:55.868Z,33.13
2022-08-09T10:28:41.299Z,32.64
2022-08-09T10:30:43.823Z,32.82
2022-08-09T10:32:13.253Z,33.13
2022-08-09T10:32:35.762Z,34.01
2022-08-09T10:32:50.454Z,33.54
2022-08-09T10:34:10.473Z,33.87
2022-08-09T10:34:41.215Z,34.38
2022-08-09T10:35:40.187Z,35.10
2022-08-09T10:36:40.167Z,35.22
2022-08-09T10:37:40.155Z,35.22
2022-08-09T10:38:57.110Z,35.71
2022-08-09T10:39:49.026Z,35.20
2022-08-09T10:40:44.814Z,35.08
2022-08-09T10:41:41.110Z,34.77
2022-08-09T10:42:40.104Z,34.87
2022-08-09T10:43:47.121Z,34.56
2022-08-09T10:44:41.076Z,34.46
2022-08-09T10:45:49.214Z,34.34
2022-08-09T10:46:54.645Z,33.74
2022-08-09T10:48:17.391Z,33.74
2022-08-09T10:48:41.037Z,33.07
2022-08-09T10:49:50.424Z,32.97
2022-08-09T10:50:41.107Z,33.46
2022-08-09T10:51:40.916Z,33.86
2022-08-09T10:52:42.769Z,33.77
2022-08-09T10:53:46.711Z,33.89
2022-08-09T10:54:40.970Z,33.89
2022-08-09T10:55:57.931Z,34.18
2022-08-09T10:56:40.968Z,34.36
2022-08-09T10:57:41.819Z,33.97
2022-08-09T10:58:39.930Z,33.48
2022-08-09T10:59:43.286Z,34.17
2022-08-09T11:00:41.738Z,33.97
2022-08-09T11:03:13.975Z,33.87
2022-08-09T11:03:16.371Z,33.77
2022-08-09T11:03:51.535Z,34.27
2022-08-09T11:04:55.628Z,34.27
2022-08-09T11:06:00.305Z,33.56
2022-08-09T11:06:40.841Z,33.48
2022-08-09T11:07:56.703Z,33.48
2022-08-09T11:08:47.216Z,33.28
2022-08-09T11:09:41.427Z,33.98
2022-08-09T11:10:40.806Z,33.69
2022-08-09T11:11:43.650Z,33.97
2022-08-09T11:12:40.773Z,33.28
2022-08-09T11:13:51.064Z,33.69
2022-08-09T11:14:40.752Z,34.30
2022-08-09T11:16:04.365Z,34.59
2022-08-09T11:16:41.113Z,33.80
2022-08-09T11:17:41.845Z,33.91
2022-08-09T11:18:39.717Z,34.00
2022-08-09T11:20:11.966Z,33.49
2022-08-09T11:20:40.684Z,33.31
2022-08-09T11:21:41.390Z,34.41
2022-08-09T11:22:39.657Z,33.80
2022-08-09T11:23:39.666Z,34.18
2022-08-09T11:24:39.666Z,34.56
2022-08-09T11:25:47.377Z,34.15
2022-08-09T11:26:40.821Z,33.95
2022-08-09T11:28:02.678Z,32.17
2022-08-09T11:28:55.814Z,32.26
2022-08-09T11:30:04.676Z,32.56
2022-08-09T11:30:48.143Z,32.65
2022-08-09T11:31:43.390Z,32.84
2022-08-09T11:32:40.580Z,32.24
2022-08-09T11:33:39.539Z,32.65
2022-08-09T11:34:39.591Z,32.87
2022-08-09T11:35:49.991Z,33.07
2022-08-09T11:36:40.529Z,33.36
2022-08-09T11:37:41.440Z,33.36
2022-08-09T11:38:41.294Z,33.97
2022-08-09T11:39:39.545Z,33.18
2022-08-09T11:40:39.507Z,33.49
2022-08-09T11:41:40.486Z,33.59
2022-08-09T11:42:39.467Z,34.00
2022-08-09T11:43:39.441Z,34.12
2022-08-09T11:44:39.423Z,34.12
2022-08-09T11:45:43.133Z,34.82
2022-08-09T11:46:39.441Z,34.61
2022-08-09T11:47:39.400Z,34.22
2022-08-09T11:48:39.438Z,34.41
2022-08-09T11:49:52.248Z,34.49
2022-08-09T11:50:55.278Z,33.79
2022-08-09T11:53:02.757Z,32.98
2022-08-09T11:53:15.908Z,33.20
2022-08-09T11:54:01.192Z,32.79
2022-08-09T11:54:40.313Z,32.69
2022-08-09T11:55:53.241Z,31.98
2022-08-09T11:56:47.842Z,32.48
2022-08-09T11:57:47.621Z,32.36
2022-08-09T11:58:40.276Z,33.34
2022-08-09T11:59:40.265Z,32.15
2022-08-09T12:00:39.244Z,32.17
2022-08-09T12:02:18.306Z,32.46
2022-08-09T12:02:40.801Z,32.56
2022-08-09T12:03:57.326Z,32.86
2022-08-09T12:04:40.290Z,32.65
2022-08-09T12:05:39.579Z,32.26
2022-08-09T12:06:39.186Z,31.97
2022-08-09T12:07:41.786Z,32.87
2022-08-09T12:08:39.191Z,32.48
2022-08-09T12:09:40.151Z,32.46
2022-08-09T12:10:40.335Z,33.64
2022-08-09T12:12:02.286Z,33.44
2022-08-09T12:12:40.229Z,33.05
2022-08-09T12:14:09.439Z,33.25
2022-08-09T12:15:04.303Z,33.13
2022-08-09T12:15:48.643Z,33.05
2022-08-09T12:16:40.284Z,32.67
2022-08-09T12:17:44.494Z,32.97
2022-08-09T12:18:40.051Z,33.07
2022-08-09T12:19:40.182Z,33.86
2022-08-09T12:20:39.050Z,33.17
2022-08-09T12:21:48.510Z,32.46
2022-08-09T12:22:40.012Z,32.67
2022-08-09T12:23:58.816Z,31.98
2022-08-09T12:24:39.993Z,31.79
2022-08-09T12:25:38.992Z,32.48
2022-08-09T12:26:39.981Z,31.29
2022-08-09T12:29:11.408Z,31.29
2022-08-09T12:29:14.710Z,31.20
2022-08-09T12:29:44.556Z,31.29
2022-08-09T12:30:40.445Z,31.39
2022-08-09T12:32:01.629Z,31.29
2022-08-09T12:32:40.828Z,31.77
2022-08-09T12:33:58.573Z,32.05
2022-08-09T12:34:40.006Z,32.14
2022-08-09T12:35:40.739Z,31.53
2022-08-09T12:36:38.883Z,31.12
2022-08-09T12:37:50.499Z,30.74
2022-08-09T12:38:39.844Z,31.53
2022-08-09T12:39:38.878Z,31.82
2022-08-09T12:40:38.825Z,31.81
2022-08-09T12:41:40.333Z,31.20
2022-08-09T12:42:38.827Z,31.70
2022-08-09T12:44:04.366Z,31.79
2022-08-09T12:44:39.765Z,31.20
2022-08-09T12:45:39.760Z,31.41
2022-08-09T12:46:38.747Z,31.61
2022-08-09T12:47:45.119Z,31.82
2022-08-09T12:48:39.733Z,32.02
2022-08-09T12:49:38.716Z,31.92
2022-08-09T12:50:39.709Z,32.12
2022-08-09T12:52:00.133Z,31.92
2022-08-09T12:52:42.837Z,32.04